Terminal Aerodrome Forecast
Issued by NWS Burlington, VT

Home | Current Version | Previous Version | Text Only | Print | Product List | Glossary On
Versions: 1 2 3 4 5 6 7 8 9 10 11 12 13 14
000
FTUS41 KBTV 031722
TAFBTV
TAF
KBTV 031722Z 0318/0418 20008KT P6SM VCSH SCT070 BKN100
      TEMPO 0318/0321 30008KT
     FM032100 25008KT P6SM SCT080
     FM040000 18004KT P6SM SKC
     FM041300 19015G25KT P6SM FEW080=

USA.gov is the U.S. government's official web portal to all federal, state and local government web resources and services.